CL86 weather

Mc Candless Towers Heliport
Santa Clara, California, United States

Public forecast

Using degrees Fahrenheit for public forecast. Weather courtesy of forecast.io.

Closest aviation weather report (METAR) to Mc Candless Towers Heliport

Closest report is Norman Y. Mineta San Jose International Airport, 2.5 nm (4.6 km) SE. Retrieved 2019/10/17 12:34 UTC (8 minutes ago):

KSJC 171234Z 00000KT 10SM FEW001 SCT013 BKN028 14/14 A2992 RMK AO2 RAE26 P0000 T01440144

Closest aviation forecast (TAF) to Mc Candless Towers Heliport

Closest forecast is Norman Y. Mineta San Jose International Airport, 2.5 nm (4.6 km) SE. Retrieved 2019/10/17 12:36 UTC (6 minutes ago):

TAF KSJC 171133Z 1712/1812 34006KT P6SM BKN025 TEMPO 1713/1716 BKN015 FM171600 31013KT P6SM SCT030 FM172200 30015G22KT P6SM SCT050 FM180400 28009KT P6SM FEW040